Terminal Aerodrome Forecast
Issued by NWS Atlanta, GA

Home | Current Version | Previous Version | Text Only | Print | Product List | Glossary On
Versions: 1 2 3 4 5 6 7 8 9 10 11 12 13 14 15 16 17 18 19 20
000
FTUS42 KFFC 062331
TAFCSG
TAF
KCSG 062331Z 0700/0724 27007KT P6SM SCT050
     FM070200 26004KT P6SM FEW250
     FM070400 00000KT P6SM FEW250
     FM071700 28006KT P6SM FEW070=

USA.gov is the U.S. government's official web portal to all federal, state and local government web resources and services.